Time;durP1;ratioP1;P1;durP2;ratioP2;P2;SDS_P1;SDS_P2;PMS_P1;PMS_P2;Temp;Humidity;BMP_temperature;BMP_pressure;BME280_temperature;BME280_humidity;BME280_pressure;Samples;Min_cycle;Max_cycle;Signal;HPM_P1;HPM_P2
2022/09/29 00:00:41;;;;;;;2.10;1.80;;;;;;;7.18;100.00;100384.22;5034831;28;20064;-72
2022/09/29 00:03:07;;;;;;;3.53;1.83;;;;;;;7.20;100.00;100386.72;5034804;28;20037;-74
2022/09/29 00:05:33;;;;;;;3.27;2.20;;;;;;;7.14;100.00;100381.06;5035524;28;20659;-73
2022/09/29 00:07:58;;;;;;;4.13;2.20;;;;;;;7.14;100.00;100383.69;5034366;28;20064;-73
2022/09/29 00:10:24;;;;;;;3.23;2.10;;;;;;;7.12;100.00;100384.84;5034872;28;20081;-73
2022/09/29 00:12:50;;;;;;;2.90;1.70;;;;;;;7.04;100.00;100377.66;5034808;28;20029;-76
2022/09/29 00:15:16;;;;;;;3.40;2.23;;;;;;;7.08;100.00;100373.72;5034206;28;20061;-74
2022/09/29 00:17:41;;;;;;;3.13;2.30;;;;;;;7.09;100.00;100391.25;5033016;28;20501;-73
2022/09/29 00:20:07;;;;;;;4.37;2.70;;;;;;;7.10;100.00;100387.63;5037817;28;20045;-73
2022/09/29 00:22:33;;;;;;;5.37;2.30;;;;;;;7.06;100.00;100382.78;5044612;28;20033;-71
2022/09/29 00:24:59;;;;;;;3.13;2.27;;;;;;;7.11;100.00;100385.81;5046654;28;20508;-73
2022/09/29 00:27:24;;;;;;;2.37;2.00;;;;;;;7.03;100.00;100381.28;5045556;28;20037;-72
2022/09/29 00:29:50;;;;;;;2.50;2.03;;;;;;;6.99;100.00;100368.50;5042628;28;20044;-71
2022/09/29 00:32:16;;;;;;;3.70;2.27;;;;;;;7.01;100.00;100372.66;5037537;28;20121;-73
2022/09/29 00:34:41;;;;;;;3.53;1.97;;;;;;;7.08;100.00;100376.34;5034009;28;20084;-73
2022/09/29 00:37:07;;;;;;;2.63;2.07;;;;;;;7.11;100.00;100369.94;5034947;28;20037;-73
2022/09/29 00:39:32;;;;;;;2.20;2.00;;;;;;;7.17;100.00;100371.97;5039154;28;20056;-75
2022/09/29 00:41:58;;;;;;;3.43;2.20;;;;;;;7.12;100.00;100374.25;5040457;28;20109;-73
2022/09/29 00:44:54;;;;;;;5.20;2.90;;;;;;;7.20;100.00;100376.13;5044260;28;20098;-71
2022/09/29 00:47:21;;;;;;;2.90;1.70;;;;;;;7.19;100.00;100371.81;5048184;28;20049;-70
2022/09/29 00:49:54;;;;;;;2.37;2.10;;;;;;;7.13;100.00;100374.09;5046989;28;20040;-70
2022/09/29 00:52:45;;;;;;;2.70;2.27;;;;;;;7.19;100.00;100369.16;5045734;28;20060;-72
2022/09/29 00:55:23;;;;;;;2.30;2.10;;;;;;;7.20;100.00;100370.84;5036182;28;20052;-72
2022/09/29 00:58:02;;;;;;;2.20;2.00;;;;;;;7.15;100.00;100368.63;5036090;28;20059;-72
2022/09/29 01:00:28;;;;;;;3.42;2.47;;;;;;;7.12;100.00;100364.47;5032783;28;20061;-73
2022/09/29 01:03:03;;;;;;;3.40;2.63;;;;;;;7.08;100.00;100367.59;5032474;28;20052;-73
2022/09/29 01:05:33;;;;;;;3.53;2.70;;;;;;;7.03;100.00;100375.97;5032786;28;20041;-74
2022/09/29 01:08:12;;;;;;;4.43;2.27;;;;;;;6.98;100.00;100361.53;5032740;28;20500;-76
2022/09/29 01:10:40;;;;;;;3.42;2.33;;;;;;;6.96;100.00;100366.97;5031285;28;20059;-72
2022/09/29 01:13:05;;;;;;;2.75;2.47;;;;;;;6.86;100.00;100346.81;5031282;28;20481;-73
2022/09/29 01:15:31;;;;;;;2.67;2.30;;;;;;;6.98;100.00;100361.53;5034064;28;20048;-75
2022/09/29 01:17:57;;;;;;;2.90;2.30;;;;;;;7.03;100.00;100353.97;5034979;28;20483;-75
2022/09/29 01:20:24;;;;;;;2.67;2.37;;;;;;;7.04;100.00;100345.03;5033905;28;20045;-75
2022/09/29 01:22:49;;;;;;;6.33;2.80;;;;;;;7.05;100.00;100352.84;5036414;28;20033;-73
2022/09/29 01:25:39;;;;;;;4.47;2.33;;;;;;;7.02;100.00;100358.44;5063030;28;20059;-75
2022/09/29 01:28:17;;;;;;;2.63;2.40;;;;;;;7.00;100.00;100355.09;5073564;28;20032;-74
2022/09/29 01:30:48;;;;;;;3.43;2.80;;;;;;;7.00;100.00;100355.09;5075083;28;20059;-73
2022/09/29 01:33:34;;;;;;;2.40;2.20;;;;;;;6.99;100.00;100353.44;5071787;28;20041;-74
2022/09/29 01:36:06;;;;;;;2.53;2.33;;;;;;;7.01;100.00;100351.47;5063962;28;20059;-73
2022/09/29 01:38:47;;;;;;;3.20;2.80;;;;;;;7.03;100.00;100346.03;5074486;28;20315;-74
2022/09/29 01:41:25;;;;;;;2.63;2.30;;;;;;;7.00;100.00;100344.50;5064600;28;20559;-73
2022/09/29 01:44:15;;;;;;;3.05;2.85;;;;;;;7.02;100.00;100339.06;5053913;28;20045;-74
2022/09/29 01:47:09;;;;;;;2.80;2.47;;;;;;;7.02;100.00;100334.59;5052504;28;20048;-73
2022/09/29 01:49:41;;;;;;;2.93;2.20;;;;;;;6.95;100.00;100336.19;5026195;28;20053;-72
2022/09/29 01:52:24;;;;;;;2.47;2.27;;;;;;;6.92;100.00;100332.97;5054005;28;20037;-73
2022/09/29 01:54:54;;;;;;;2.97;2.57;;;;;;;6.96;100.00;100335.22;5056157;28;20040;-75
2022/09/29 01:57:49;;;;;;;3.03;2.30;;;;;;;6.99;100.00;100326.13;5056098;28;20132;-74
2022/09/29 02:00:18;;;;;;;2.30;2.10;;;;;;;7.03;100.00;100338.09;5038010;28;20508;-75
2022/09/29 02:02:45;;;;;;;3.05;2.38;;;;;;;7.03;100.00;100328.31;5056108;28;20084;-75
2022/09/29 02:05:18;;;;;;;2.75;2.13;;;;;;;6.97;100.00;100323.63;5055812;28;20107;-74
2022/09/29 02:07:46;;;;;;;3.03;2.07;;;;;;;6.95;100.00;100317.66;5055548;28;20041;-72
2022/09/29 02:10:21;;;;;;;3.13;2.58;;;;;;;7.04;100.00;100327.34;5055498;28;20041;-75
2022/09/29 02:12:51;;;;;;;3.80;2.20;;;;;;;7.07;100.00;100320.91;5055521;28;20479;-74
2022/09/29 02:15:32;;;;;;;3.40;2.93;;;;;;;7.07;100.00;100321.75;5055526;28;20029;-73
2022/09/29 02:18:02;;;;;;;5.50;2.47;;;;;;;7.02;100.00;100324.00;5055491;28;20045;-72
2022/09/29 02:20:27;;;;;;;3.00;2.17;;;;;;;6.97;100.00;100323.63;5055125;28;20041;-76
2022/09/29 02:22:54;;;;;;;2.70;2.17;;;;;;;6.94;100.00;100323.94;5055440;28;20040;-73
2022/09/29 02:25:22;;;;;;;2.77;2.20;;;;;;;6.87;100.00;100330.78;5066251;28;20424;-75
2022/09/29 02:27:49;;;;;;;4.57;1.83;;;;;;;6.88;100.00;100335.09;5075441;28;20037;-73
2022/09/29 02:30:15;;;;;;;4.77;2.10;;;;;;;6.77;100.00;100314.13;5075166;28;20107;-74
2022/09/29 02:32:41;;;;;;;2.33;2.13;;;;;;;6.87;100.00;100329.94;5074933;28;20083;-75
2022/09/29 02:35:09;;;;;;;2.43;1.97;;;;;;;6.87;100.00;100322.84;5074922;28;20540;-73
2022/09/29 02:38:03;;;;;;;2.90;2.50;;;;;;;6.88;100.00;100329.81;5075410;28;20040;-73
2022/09/29 02:40:58;;;;;;;2.63;2.43;;;;;;;6.86;100.00;100323.81;5075408;28;20079;-75
2022/09/29 02:43:57;;;;;;;4.40;2.43;;;;;;;6.91;100.00;100331.31;5076195;28;20143;-75
2022/09/29 02:46:55;;;;;;;2.83;1.83;;;;;;;6.89;100.00;100331.47;5074902;28;20040;-76
2022/09/29 02:49:38;;;;;;;3.07;2.17;;;;;;;6.88;100.00;100331.63;5074721;28;20036;-76
2022/09/29 02:52:10;;;;;;;2.77;2.37;;;;;;;6.88;100.00;100334.25;5057092;28;20545;-73
2022/09/29 02:54:54;;;;;;;4.80;2.90;;;;;;;6.87;100.00;100325.50;5075007;28;20384;-73
2022/09/29 02:57:31;;;;;;;3.70;2.50;;;;;;;6.86;100.00;100330.94;5074699;28;20032;-73
2022/09/29 03:00:08;;;;;;;2.63;2.40;;;;;;;6.81;100.00;100324.28;5074611;28;20533;-75
2022/09/29 03:02:37;;;;;;;2.30;2.07;;;;;;;6.84;100.00;100329.28;5074295;28;20540;-73
2022/09/29 03:05:05;;;;;;;2.97;2.50;;;;;;;6.82;100.00;100330.41;5074557;28;20182;-73
2022/09/29 03:07:30;;;;;;;3.97;2.10;;;;;;;6.82;100.00;100327.75;5074737;28;20032;-77
2022/09/29 03:09:56;;;;;;;4.37;2.30;;;;;;;6.90;100.00;100335.78;5074514;28;20093;-72
2022/09/29 03:12:21;;;;;;;2.93;2.23;;;;;;;6.90;100.00;100330.47;5074429;28;20037;-76
2022/09/29 03:14:47;;;;;;;2.90;2.60;;;;;;;6.92;100.00;100325.88;5074758;28;20024;-74
2022/09/29 03:17:13;;;;;;;3.23;2.87;;;;;;;6.98;100.00;100333.25;5074386;28;20610;-73
2022/09/29 03:19:38;;;;;;;4.00;2.40;;;;;;;6.91;100.00;100326.84;5074625;28;20032;-74
2022/09/29 03:22:04;;;;;;;3.27;2.97;;;;;;;6.95;100.00;100333.53;5074233;28;20044;-72
2022/09/29 03:24:30;;;;;;;2.80;2.50;;;;;;;6.93;100.00;100332.00;5074394;28;20044;-72
2022/09/29 03:26:56;;;;;;;3.87;2.23;;;;;;;6.91;100.00;100329.50;5074180;28;20040;-72
2022/09/29 03:29:21;;;;;;;2.63;2.30;;;;;;;6.77;100.00;100314.13;5074324;28;20055;-73
2022/09/29 03:31:47;;;;;;;2.90;2.43;;;;;;;6.81;100.00;100324.28;5074597;28;20119;-75
2022/09/29 03:34:12;;;;;;;3.77;2.87;;;;;;;6.82;100.00;100331.22;5073916;28;20048;-75
2022/09/29 03:36:40;;;;;;;6.50;5.13;;;;;;;6.80;100.00;100337.66;5073923;28;20547;-75
2022/09/29 03:39:05;;;;;;;4.97;2.60;;;;;;;6.75;100.00;100335.47;5074181;28;20123;-73
2022/09/29 03:41:31;;;;;;;2.53;2.33;;;;;;;6.76;100.00;100331.84;5073731;28;20131;-75
2022/09/29 03:43:56;;;;;;;2.47;2.27;;;;;;;6.77;100.00;100337.97;5074025;28;20035;-73
2022/09/29 03:46:22;;;;;;;2.57;2.37;;;;;;;6.71;100.00;100331.44;5073813;28;20488;-74
2022/09/29 03:48:51;;;;;;;5.47;2.25;;;;;;;6.68;100.00;100336.22;5073827;28;20119;-74
2022/09/29 03:51:16;;;;;;;5.23;3.57;;;;;;;6.65;100.00;100320.59;5073742;28;20170;-75
2022/09/29 03:53:42;;;;;;;3.17;2.40;;;;;;;6.80;100.00;100342.97;5073827;28;20039;-73
2022/09/29 03:56:07;;;;;;;3.13;2.63;;;;;;;6.71;100.00;100323.50;5073344;28;20044;-73
2022/09/29 03:58:33;;;;;;;2.53;2.33;;;;;;;6.77;100.00;100333.50;5073895;28;20484;-73
2022/09/29 04:01:00;;;;;;;3.47;2.70;;;;;;;6.78;100.00;100340.47;5073629;28;20133;-75
2022/09/29 04:03:26;;;;;;;2.53;2.30;;;;;;;6.72;100.00;100327.81;5073273;28;20100;-73
2022/09/29 04:05:52;;;;;;;3.27;2.20;;;;;;;6.69;100.00;100330.78;5073603;28;20039;-73
2022/09/29 04:08:18;;;;;;;4.10;2.10;;;;;;;6.78;100.00;100339.63;5073366;28;20032;-74
2022/09/29 04:10:46;;;;;;;3.80;2.93;;;;;;;6.80;100.00;100333.19;5073096;28;20040;-72
2022/09/29 04:13:11;;;;;;;3.80;2.45;;;;;;;6.79;100.00;100330.69;5073454;28;20036;-73
2022/09/29 04:15:37;;;;;;;3.20;2.57;;;;;;;6.82;100.00;100330.41;5072689;28;20032;-73
2022/09/29 04:18:03;;;;;;;3.00;2.30;;;;;;;6.78;100.00;100315.81;5074055;28;20178;-74
2022/09/29 04:20:28;;;;;;;3.13;2.83;;;;;;;6.84;100.00;100331.09;5075496;28;20430;-73
2022/09/29 04:22:54;;;;;;;4.03;3.20;;;;;;;6.80;100.00;100321.78;5073236;28;20480;-76
2022/09/29 04:25:19;;;;;;;3.77;2.87;;;;;;;6.70;100.00;100305.97;5072887;28;20131;-82
2022/09/29 04:27:45;;;;;;;4.90;2.43;;;;;;;6.82;100.00;100323.28;5073180;28;20112;-78
2022/09/29 04:30:11;;;;;;;4.43;2.57;;;;;;;6.77;100.00;100316.78;5073285;28;20041;-77
2022/09/29 04:32:37;;;;;;;4.03;2.43;;;;;;;6.92;100.00;100325.88;5073489;28;20075;-79
2022/09/29 04:35:05;;;;;;;;;;;;;;;6.94;100.00;100333.66;5074002;28;20135;-75
2022/09/29 04:37:31;;;;;;;3.03;2.63;;;;;;;6.70;100.00;100308.63;5073330;28;20003;-82
2022/09/29 04:39:56;;;;;;;2.80;2.50;;;;;;;6.84;100.00;100331.09;5038130;28;20056;-77
2022/09/29 04:42:22;;;;;;;4.67;2.63;;;;;;;6.77;100.00;100317.63;5073305;28;20043;-73
2022/09/29 04:44:48;;;;;;;3.70;3.03;;;;;;;6.78;100.00;100323.75;5072992;28;20044;-73
2022/09/29 04:47:14;;;;;;;3.90;3.00;;;;;;;6.72;100.00;100316.41;5073314;28;20044;-74
2022/09/29 04:49:40;;;;;;;7.07;3.60;;;;;;;6.81;100.00;100326.09;5073809;28;20071;-74
2022/09/29 04:52:05;;;;;;;4.80;2.87;;;;;;;6.91;100.00;100328.66;5073636;28;20111;-74
2022/09/29 04:54:34;;;;;;;5.70;3.40;;;;;;;6.87;100.00;100327.31;5073974;28;20062;-75
2022/09/29 04:57:00;;;;;;;4.95;2.97;;;;;;;6.81;100.00;100323.44;5055683;28;20116;-72
2022/09/29 04:59:28;;;;;;;4.13;2.90;;;;;;;6.72;100.00;100314.59;5072033;28;20143;-75
2022/09/29 05:01:53;;;;;;;3.80;2.87;;;;;;;6.80;100.00;100327.06;5073218;28;20408;-74
2022/09/29 05:04:22;;;;;;;6.13;3.43;;;;;;;6.80;100.00;100337.66;5074031;28;20060;-71
2022/09/29 05:06:48;;;;;;;4.10;3.70;;;;;;;6.81;100.00;100334.88;5076010;28;20454;-71
2022/09/29 05:09:13;;;;;;;4.47;3.17;;;;;;;6.73;100.00;100326.00;5084528;28;20036;-72
2022/09/29 05:11:39;;;;;;;4.60;3.77;;;;;;;6.68;100.00;100310.59;5084905;28;20028;-71
2022/09/29 05:14:04;;;;;;;5.63;3.80;;;;;;;6.88;100.00;100326.31;5083951;28;20040;-72
2022/09/29 05:16:30;;;;;;;4.07;3.53;;;;;;;6.86;100.00;100323.81;5080920;28;20412;-74
2022/09/29 05:18:56;;;;;;;4.77;3.70;;;;;;;6.90;100.00;100327.84;5077728;28;20121;-73
2022/09/29 05:21:22;;;;;;;4.77;3.80;;;;;;;6.88;100.00;100326.31;5076590;28;20411;-74
2022/09/29 05:23:50;;;;;;;5.73;4.70;;;;;;;6.92;100.00;100327.69;5077407;28;20032;-72
2022/09/29 05:26:15;;;;;;;5.18;4.40;;;;;;;6.80;100.00;100321.78;5075410;28;20033;-73
2022/09/29 05:28:46;;;;;;;5.03;4.43;;;;;;;6.73;100.00;100324.19;5074641;28;20050;-73
2022/09/29 05:31:13;;;;;;;6.30;4.20;;;;;;;6.75;100.00;100324.03;5074945;28;20067;-74
2022/09/29 05:33:39;;;;;;;4.97;4.20;;;;;;;6.80;100.00;100325.25;5075537;28;20077;-72
2022/09/29 05:36:06;;;;;;;4.70;4.30;;;;;;;6.82;100.00;100331.22;5074312;28;20028;-71
2022/09/29 05:38:34;;;;;;;5.90;4.43;;;;;;;6.78;100.00;100323.75;5056663;28;20031;-76
2022/09/29 05:41:03;;;;;;;6.70;4.17;;;;;;;6.90;100.00;100330.47;5054435;28;20507;-76
2022/09/29 05:43:29;;;;;;;5.53;4.83;;;;;;;6.99;100.00;100334.91;5072101;28;20040;-75
2022/09/29 05:46:03;;;;;;;5.33;4.90;;;;;;;6.97;100.00;100328.94;5072153;28;20048;-74
2022/09/29 05:48:29;;;;;;;10.13;9.23;;;;;;;6.93;100.00;100316.94;5053871;28;20044;-74
2022/09/29 05:51:06;;;;;;;7.23;4.90;;;;;;;7.06;100.00;100329.84;5071654;28;20190;-76
2022/09/29 05:53:32;;;;;;;5.03;4.53;;;;;;;6.95;100.00;100330.91;5071946;28;20041;-77
2022/09/29 05:56:11;;;;;;;4.37;3.97;;;;;;;6.93;100.00;100338.13;5071797;28;20038;-76
2022/09/29 05:58:38;;;;;;;6.60;5.00;;;;;;;6.89;100.00;100344.69;5071732;28;20479;-75
2022/09/29 06:03:58;;;;;;;4.50;4.10;;;;;;;6.90;100.00;100349.00;5070761;28;20037;-74
2022/09/29 06:06:26;;;;;;;4.93;4.23;;;;;;;6.95;100.00;100346.78;5070614;28;20048;-74
2022/09/29 06:08:52;;;;;;;4.43;4.03;;;;;;;6.88;100.00;100343.03;5070742;28;20480;-75
2022/09/29 06:11:22;;;;;;;4.30;3.90;;;;;;;6.86;100.00;100342.34;5052855;28;20040;-74
2022/09/29 06:13:51;;;;;;;5.57;3.57;;;;;;;6.88;100.00;100342.22;5070866;28;20032;-74
2022/09/29 06:16:18;;;;;;;4.80;4.15;;;;;;;6.96;100.00;100347.63;5066562;28;20037;-76
2022/09/29 06:18:47;;;;;;;4.60;4.20;;;;;;;7.07;100.00;100356.16;5051528;28;20053;-76
2022/09/29 06:21:17;;;;;;;4.95;4.20;;;;;;;7.17;100.00;100352.59;5062834;28;20044;-73
2022/09/29 06:23:43;;;;;;;4.50;4.07;;;;;;;7.14;100.00;100357.22;5071263;28;20044;-75
2022/09/29 06:26:11;;;;;;;5.90;4.10;;;;;;;7.14;100.00;100367.81;5071326;28;20036;-74
2022/09/29 06:28:38;;;;;;;4.65;3.42;;;;;;;7.15;100.00;100361.53;5071485;28;20041;-74
2022/09/29 06:31:05;;;;;;;5.07;3.60;;;;;;;7.19;100.00;100358.56;5071633;28;20110;-74
2022/09/29 06:33:33;;;;;;;4.95;4.45;;;;;;;7.14;100.00;100359.03;5071621;28;20166;-74
2022/09/29 06:38:46;;;;;;;6.73;4.70;;;;;;;7.20;100.00;100360.25;5074079;28;20033;-77
2022/09/29 06:41:12;;;;;;;4.73;4.10;;;;;;;7.14;100.00;100362.50;5075168;28;20047;-75
2022/09/29 06:43:37;;;;;;;6.93;4.20;;;;;;;7.20;100.00;100362.88;5075421;28;20041;-76
2022/09/29 06:46:03;;;;;;;5.10;4.60;;;;;;;7.21;100.00;100361.91;5075028;28;20120;-75
2022/09/29 06:48:29;;;;;;;5.43;4.40;;;;;;;7.16;100.00;100359.72;5075061;28;20055;-75
2022/09/29 06:50:55;;;;;;;6.40;5.53;;;;;;;7.17;100.00;100371.97;5074856;28;20067;-75
2022/09/29 06:53:21;;;;;;;4.70;4.30;;;;;;;7.13;100.00;100363.50;5074957;28;20041;-74
2022/09/29 06:55:55;;;;;;;5.43;4.73;;;;;;;7.14;100.00;100359.03;5075276;28;20115;-74
2022/09/29 06:58:22;;;;;;;5.17;4.30;;;;;;;7.19;100.00;100361.22;5056982;28;20036;-74
2022/09/29 07:00:47;;;;;;;5.03;4.57;;;;;;;7.30;100.00;100359.22;5074867;28;20056;-74
2022/09/29 07:03:13;;;;;;;5.07;4.40;;;;;;;7.38;100.00;100364.56;5075855;28;20556;-75
2022/09/29 07:05:38;;;;;;;5.50;4.83;;;;;;;7.37;100.00;100365.56;5075735;28;21042;-74
2022/09/29 07:08:07;;;;;;;5.40;4.43;;;;;;;7.42;100.00;100365.09;5075238;28;20403;-74
2022/09/29 07:10:33;;;;;;;4.88;4.45;;;;;;;7.39;100.00;100366.22;5074489;28;20552;-73
2022/09/29 07:12:58;;;;;;;6.70;4.37;;;;;;;7.37;100.00;100359.44;5074715;28;20124;-72
2022/09/29 07:15:30;;;;;;;5.47;4.63;;;;;;;7.36;100.00;100352.47;5056440;28;20476;-76
2022/09/29 07:18:00;;;;;;;7.70;4.90;;;;;;;7.51;100.00;100364.16;5074706;28;20496;-74
2022/09/29 07:20:27;;;;;;;5.10;4.30;;;;;;;7.62;100.00;100361.31;5075098;28;20037;-74
2022/09/29 07:22:53;;;;;;;5.23;4.60;;;;;;;7.71;100.00;100370.97;5076389;28;20488;-76
2022/09/29 07:25:18;;;;;;;5.70;5.20;;;;;;;7.66;100.00;100370.63;5056991;28;20044;-77
2022/09/29 07:27:45;;;;;;;5.87;5.10;;;;;;;7.56;100.00;100383.13;5074519;28;20040;-76
2022/09/29 07:30:11;;;;;;;5.73;5.23;;;;;;;7.55;100.00;100381.47;5039898;28;20040;-76
2022/09/29 07:32:37;;;;;;;5.77;4.20;;;;;;;7.53;100.00;100380.78;5074762;28;20040;-77
2022/09/29 07:35:03;;;;;;;6.53;4.93;;;;;;;7.49;100.00;100375.91;5074586;28;20041;-76
2022/09/29 07:37:29;;;;;;;5.03;4.47;;;;;;;7.47;100.00;100379.56;5074441;28;20411;-76
2022/09/29 07:39:55;;;;;;;9.53;3.97;;;;;;;7.54;100.00;100387.75;5056083;28;20044;-74
2022/09/29 07:42:20;;;;;;;7.57;4.27;;;;;;;7.52;100.00;100392.38;5074161;28;20063;-76
2022/09/29 07:44:46;;;;;;;5.77;4.70;;;;;;;7.47;100.00;100390.16;5073946;28;20032;-75
2022/09/29 07:47:12;;;;;;;6.00;4.03;;;;;;;7.47;100.00;100384.84;5073884;28;20551;-75
2022/09/29 07:49:39;;;;;;;4.53;4.10;;;;;;;7.41;100.00;100381.97;5054988;28;20067;-77
2022/09/29 07:52:05;;;;;;;4.07;3.77;;;;;;;7.36;100.00;100385.09;5074274;28;20476;-76
2022/09/29 07:54:30;;;;;;;5.33;4.43;;;;;;;7.45;100.00;100385.97;5074050;28;20037;-75
2022/09/29 07:56:59;;;;;;;5.17;4.50;;;;;;;7.56;100.00;100393.72;5074035;28;20535;-76
2022/09/29 07:59:26;;;;;;;4.47;4.07;;;;;;;7.55;100.00;100392.06;5073650;28;20144;-76
2022/09/29 08:01:52;;;;;;;6.70;4.63;;;;;;;7.53;100.00;100393.19;5073776;28;20045;-76
2022/09/29 08:04:18;;;;;;;7.83;4.27;;;;;;;7.44;100.00;100384.31;5073794;28;20048;-73
2022/09/29 08:06:43;;;;;;;5.33;4.83;;;;;;;7.54;100.00;100390.41;5073800;28;20405;-77
2022/09/29 08:09:09;;;;;;;6.70;4.30;;;;;;;7.64;100.00;100380.53;5073645;28;20054;-75
2022/09/29 08:11:39;;;;;;;5.03;4.00;;;;;;;7.70;100.00;100400.28;5073499;28;20040;-74
2022/09/29 08:14:05;;;;;;;5.50;3.93;;;;;;;7.63;100.00;100399.25;5055354;28;20040;-76
2022/09/29 08:16:31;;;;;;;5.33;4.47;;;;;;;7.65;100.00;100402.56;5073152;28;20068;-75
2022/09/29 08:18:58;;;;;;;4.80;4.30;;;;;;;7.67;100.00;100397.94;5073637;28;20064;-77
2022/09/29 08:21:24;;;;;;;5.63;4.27;;;;;;;7.67;100.00;100403.25;5073947;28;20097;-75
2022/09/29 08:23:49;;;;;;;5.07;4.43;;;;;;;7.60;100.00;100400.38;5073240;28;20029;-76
2022/09/29 08:26:17;;;;;;;4.77;4.37;;;;;;;7.57;100.00;100398.03;5073203;28;20028;-76
2022/09/29 08:28:44;;;;;;;4.90;4.30;;;;;;;7.65;100.00;100399.91;5073104;28;20601;-75
2022/09/29 08:31:12;;;;;;;4.50;4.10;;;;;;;7.67;100.00;100392.66;5038205;28;20044;-77
2022/09/29 08:33:38;;;;;;;;;;;;;;;7.82;100.00;100392.94;5055726;28;20032;-74
2022/09/29 08:36:13;;;;;;;4.73;4.33;;;;;;;7.78;100.00;100395.88;5073105;28;19916;-75
2022/09/29 08:38:41;;;;;;;4.37;3.97;;;;;;;7.82;100.00;100393.78;5055145;28;20090;-75
2022/09/29 08:41:27;;;;;;;6.07;4.68;;;;;;;7.86;100.00;100386.34;5055046;28;20066;-76
2022/09/29 08:44:02;;;;;;;4.67;3.83;;;;;;;7.92;100.00;100391.03;5073423;28;20384;-74
2022/09/29 08:46:30;;;;;;;5.50;4.17;;;;;;;7.93;100.00;100405.94;5072815;28;20082;-75
2022/09/29 08:49:01;;;;;;;6.53;3.95;;;;;;;7.86;99.84;100395.13;5073043;28;20047;-75
2022/09/29 08:51:38;;;;;;;5.47;4.43;;;;;;;7.91;100.00;100407.94;5072888;28;20032;-74
2022/09/29 08:54:19;;;;;;;4.30;3.90;;;;;;;7.93;100.00;100400.66;5071945;28;20182;-74
2022/09/29 08:56:45;;;;;;;7.93;4.63;;;;;;;8.04;100.00;100403.88;5073024;28;20146;-77
2022/09/29 08:59:12;;;;;;;4.73;4.30;;;;;;;8.05;100.00;100408.19;5072679;28;20051;-75
2022/09/29 09:01:46;;;;;;;3.53;3.30;;;;;;;8.01;99.94;100387.44;5071833;28;20105;-75
2022/09/29 09:04:23;;;;;;;4.40;4.00;;;;;;;8.12;100.00;100416.38;5072357;28;20040;-76
2022/09/29 09:06:51;;;;;;;3.67;3.33;;;;;;;8.14;100.00;100416.22;5072648;28;20051;-76
2022/09/29 09:09:30;;;;;;;3.65;3.35;;;;;;;8.13;99.88;100423.34;5072737;28;20033;-76
2022/09/29 09:12:20;;;;;;;5.70;4.50;;;;;;;8.21;100.00;100414.59;5072508;28;20492;-73
2022/09/29 09:14:49;;;;;;;4.20;3.80;;;;;;;8.23;99.49;100415.28;5072507;28;20381;-75
2022/09/29 09:17:34;;;;;;;4.32;3.92;;;;;;;8.14;98.81;100414.41;5073429;28;20153;-76
2022/09/29 09:20:33;;;;;;;4.20;3.80;;;;;;;8.05;98.34;100416.16;5076309;28;20547;-77
2022/09/29 09:23:04;;;;;;;4.33;4.03;;;;;;;7.98;98.68;100406.31;5075231;28;20042;-76
2022/09/29 09:25:33;;;;;;;5.23;3.87;;;;;;;8.09;99.13;100416.66;5039891;28;20126;-76
2022/09/29 09:28:10;;;;;;;5.38;3.65;;;;;;;8.11;99.60;100420.03;5033892;28;20044;-76
2022/09/29 09:30:41;;;;;;;4.87;3.60;;;;;;;8.11;99.05;100425.31;5016409;28;20053;-75
2022/09/29 09:33:18;;;;;;;3.60;3.33;;;;;;;8.10;99.58;100422.81;5034768;28;20434;-74
2022/09/29 09:35:50;;;;;;;4.37;3.67;;;;;;;8.11;99.31;100427.97;5033885;28;20500;-77
2022/09/29 09:38:24;;;;;;;6.57;4.10;;;;;;;8.09;99.31;100421.97;5032868;28;20049;-75
2022/09/29 09:40:54;;;;;;;6.10;5.50;;;;;;;8.20;98.89;100435.00;5032476;28;20128;-75
2022/09/29 09:43:23;;;;;;;4.47;3.73;;;;;;;8.18;99.09;100436.97;5032367;28;20156;-77
2022/09/29 09:46:12;;;;;;;4.78;4.30;;;;;;;8.16;98.66;100438.94;5032201;28;20040;-73
2022/09/29 09:48:42;;;;;;;4.13;3.80;;;;;;;8.12;99.38;100442.06;5032675;28;20041;-75
2022/09/29 09:51:31;;;;;;;4.43;4.03;;;;;;;8.16;99.65;100444.25;5032670;28;20037;-75
2022/09/29 09:54:04;;;;;;;4.32;3.92;;;;;;;8.12;98.95;100442.91;5032932;28;20043;-72
2022/09/29 09:57:05;;;;;;;6.53;4.63;;;;;;;8.32;99.78;100449.66;5044740;28;20693;-73
2022/09/29 10:00:11;;;;;;;4.97;4.47;;;;;;;8.28;99.58;100443.00;5015946;28;20052;-76
2022/09/29 10:02:45;;;;;;;5.70;5.20;;;;;;;8.20;100.00;100434.16;5053940;28;20045;-73
2022/09/29 10:05:16;;;;;;;4.33;4.00;;;;;;;8.22;100.00;100448.94;5075341;28;20092;-73
2022/09/29 10:07:43;;;;;;;5.23;4.63;;;;;;;8.11;99.97;100433.28;5063145;28;20483;-74
2022/09/29 10:10:21;;;;;;;5.83;4.37;;;;;;;8.23;100.00;100441.81;5076593;28;20424;-74
2022/09/29 10:12:56;;;;;;;5.37;4.97;;;;;;;8.30;100.00;100446.34;5073266;28;20131;-73
2022/09/29 10:15:30;;;;;;;4.67;4.27;;;;;;;8.35;99.76;100451.19;5058100;28;20056;-75
2022/09/29 10:18:05;;;;;;;4.03;3.73;;;;;;;8.47;99.22;100446.47;5057931;28;20029;-76
2022/09/29 10:20:33;;;;;;;4.73;3.67;;;;;;;8.48;97.67;100443.66;5075510;28;20380;-74
2022/09/29 10:23:27;;;;;;;5.10;3.67;;;;;;;8.59;97.97;100453.19;5041046;28;20047;-74
2022/09/29 10:26:12;;;;;;;5.37;3.90;;;;;;;8.67;98.52;100458.53;5075618;28;20468;-76
2022/09/29 10:28:50;;;;;;;5.40;4.10;;;;;;;8.66;98.03;100456.84;5075383;28;20049;-75
2022/09/29 10:31:25;;;;;;;5.90;4.57;;;;;;;8.59;98.76;100454.00;5066118;28;20451;-76
2022/09/29 10:34:14;;;;;;;9.07;4.70;;;;;;;8.73;99.06;100459.75;5055226;28;20033;-76
2022/09/29 10:37:19;;;;;;;6.83;4.83;;;;;;;8.72;98.72;100466.88;5055580;28;20418;-77
2022/09/29 10:39:47;;;;;;;5.57;4.20;;;;;;;8.61;99.06;100465.31;5023817;28;20498;-76
2022/09/29 10:42:23;;;;;;;4.93;4.53;;;;;;;8.65;100.00;100466.66;5035064;28;20053;-74
2022/09/29 10:45:00;;;;;;;5.37;3.87;;;;;;;8.60;99.33;100468.13;5035017;28;20037;-74
2022/09/29 10:47:26;;;;;;;7.03;4.67;;;;;;;8.50;99.40;100467.41;5035061;28;20029;-75
2022/09/29 10:50:21;;;;;;;6.47;3.90;;;;;;;8.54;100.00;100479.38;5035468;28;20535;-75
2022/09/29 10:52:57;;;;;;;5.47;4.77;;;;;;;8.66;100.00;100478.09;5035311;28;20047;-76
2022/09/29 10:55:27;;;;;;;5.07;4.57;;;;;;;8.60;100.00;100460.16;5034903;28;20045;-74
2022/09/29 10:57:56;;;;;;;4.53;4.13;;;;;;;8.69;100.00;100473.34;5034611;28;20083;-74
2022/09/29 11:00:47;;;;;;;5.23;4.73;;;;;;;8.66;100.00;100478.09;5035463;28;20056;-73
2022/09/29 11:03:26;;;;;;;7.13;5.03;;;;;;;8.72;100.00;100482.81;5035411;28;20094;-77
2022/09/29 11:06:22;;;;;;;6.43;4.70;;;;;;;8.82;100.00;100483.50;5034639;28;20396;-75
2022/09/29 11:09:00;;;;;;;6.00;4.17;;;;;;;8.87;100.00;100481.22;5021197;28;20049;-79
2022/09/29 11:11:35;;;;;;;6.30;4.75;;;;;;;8.75;99.95;100479.00;5034482;28;20041;-74
2022/09/29 11:14:00;;;;;;;5.10;4.30;;;;;;;8.73;100.00;100481.81;5034664;28;20045;-74
2022/09/29 11:16:29;;;;;;;6.40;5.00;;;;;;;8.66;100.00;100483.41;5034792;28;20048;-73
2022/09/29 11:19:03;;;;;;;6.07;5.40;;;;;;;8.63;100.00;100481.06;5034437;28;20033;-74
2022/09/29 11:21:41;;;;;;;5.67;5.07;;;;;;;8.63;100.00;100481.06;5034474;28;20068;-73
2022/09/29 11:24:37;;;;;;;4.97;4.47;;;;;;;8.67;100.00;100487.72;5034045;28;20111;-75
2022/09/29 11:27:11;;;;;;;7.40;5.40;;;;;;;8.77;100.00;100491.13;5034598;28;20428;-74
2022/09/29 11:29:40;;;;;;;5.27;4.77;;;;;;;8.78;100.00;100487.47;5034355;28;20034;-74
2022/09/29 11:32:24;;;;;;;6.55;5.10;;;;;;;8.83;100.00;100485.19;5034375;28;20132;-75
2022/09/29 11:35:11;;;;;;;8.77;5.20;;;;;;;8.89;100.00;100473.09;5033981;28;20033;-74
2022/09/29 11:38:22;;;;;;;5.43;4.70;;;;;;;8.97;100.00;100487.25;5034357;28;20099;-74
2022/09/29 11:41:46;;;;;;;6.03;4.37;;;;;;;9.08;99.66;100480.00;5010607;28;20041;-77
2022/09/29 11:44:30;;;;;;;5.67;4.70;;;;;;;9.03;99.31;100484.94;4956921;28;20078;-76
2022/09/29 11:47:11;;;;;;;6.13;5.23;;;;;;;8.87;99.50;100486.53;4973032;28;20053;-76
2022/09/29 11:50:01;;;;;;;7.60;5.73;;;;;;;8.75;100.00;100477.19;5023902;28;20218;-77
2022/09/29 11:52:46;;;;;;;7.13;5.23;;;;;;;8.71;100.00;100489.09;5034306;28;20041;-77